Terminal Aerodrome Forecast
Issued by NWS

Home | Current Version | Previous Version | Graphics & Text | Print | Product List | Glossary On
Versions: 1 2 3 4 5 6 7 8 9 10 11 12 13 14 15 16 17 18 19 20
000
FTUS43 KGRB 280520
TAFAUW
TAF
KAUW 280520Z 2806/2906 18004KT P6SM SCT080 BKN150
     FM280800 VRB03KT P6SM SCT050 BKN080
     FM281200 15003KT P6SM BKN040 OVC080
      TEMPO 2813/2815 -RA
     FM281500 18005KT P6SM -RA BKN035 OVC070
     FM281700 20007KT 6SM RA BKN022 OVC035
     FM282200 20005KT 4SM RA BKN018 OVC030
     FM290100 VRB03KT 2SM -RA BKN008 OVC015=

USA.gov is the U.S. government's official web portal to all federal, state and local government web resources and services.